Weather at Gautam Buddha International Airport

Public forecast

Using degrees Celsius for public forecast. Weather courtesy of forecast.io.

Closest aviation weather report (METAR) to Gautam Buddha International Airport

Report is more than 6 hours old.

Closest report is Gorakhpur Airport, 46.0 nm (85.2 km) S.

2024/05/28 07:00 (retrieved 2 days ago)

VEGK 280700Z 18004KT 6000 SKC 39/26 Q0994 NOSIG

Closest aviation forecast (TAF) to Gautam Buddha International Airport

Closest forecast is Gorakhpur Airport, 46.0 nm (85.2 km) S.

2024/05/30 06:00 (retrieved 3 hours ago)

TAF VEGK 300330Z 3006/3018 12008KT 6000 FEW025 SCT090 TEMPO 3006/3008 5000 BR TEMPO 3008/3010 12010G20KT SCT025 FEW030CB BKN100